sensor_id;sensor_type;location;lat;lon;timestamp;P1;durP1;ratioP1;P2;durP2;ratioP2
20772;SDS011;10546;50.674;4.616;2023-04-03T05:34:52;21.73;;;11.90;;
20772;SDS011;10546;50.674;4.616;2023-04-03T05:37:19;24.87;;;14.00;;
20772;SDS011;10546;50.674;4.616;2023-04-03T05:39:46;27.93;;;13.10;;
20772;SDS011;10546;50.674;4.616;2023-04-03T05:42:12;23.70;;;13.60;;
20772;SDS011;10546;50.674;4.616;2023-04-03T05:44:38;23.77;;;13.60;;
20772;SDS011;10546;50.674;4.616;2023-04-03T05:47:04;20.30;;;13.23;;
20772;SDS011;10546;50.674;4.616;2023-04-03T05:49:30;24.70;;;13.07;;
20772;SDS011;10546;50.674;4.616;2023-04-03T05:51:56;23.80;;;12.97;;
20772;SDS011;10546;50.674;4.616;2023-04-03T05:54:23;27.63;;;12.83;;
20772;SDS011;10546;50.674;4.616;2023-04-03T05:56:51;23.67;;;13.77;;
20772;SDS011;10546;50.674;4.616;2023-04-03T05:59:17;24.53;;;13.43;;
20772;SDS011;10546;50.674;4.616;2023-04-03T06:01:43;19.27;;;12.30;;
20772;SDS011;10546;50.674;4.616;2023-04-03T06:04:09;22.40;;;13.40;;
20772;SDS011;10546;50.674;4.616;2023-04-03T06:06:48;21.53;;;13.30;;
20772;SDS011;10546;50.674;4.616;2023-04-03T06:09:20;23.83;;;13.43;;
20772;SDS011;10546;50.674;4.616;2023-04-03T06:11:47;24.03;;;13.30;;
20772;SDS011;10546;50.674;4.616;2023-04-03T06:14:13;23.40;;;13.10;;
20772;SDS011;10546;50.674;4.616;2023-04-03T06:16:39;24.37;;;13.53;;
20772;SDS011;10546;50.674;4.616;2023-04-03T06:19:05;22.83;;;12.47;;
20772;SDS011;10546;50.674;4.616;2023-04-03T06:21:32;22.53;;;11.67;;
20772;SDS011;10546;50.674;4.616;2023-04-03T06:23:59;19.87;;;11.57;;
20772;SDS011;10546;50.674;4.616;2023-04-03T06:26:24;17.17;;;10.40;;
20772;SDS011;10546;50.674;4.616;2023-04-03T06:28:50;17.77;;;9.73;;
20772;SDS011;10546;50.674;4.616;2023-04-03T06:31:15;13.47;;;8.27;;
20772;SDS011;10546;50.674;4.616;2023-04-03T06:33:41;10.80;;;7.57;;
20772;SDS011;10546;50.674;4.616;2023-04-03T06:36:09;10.60;;;7.33;;
20772;SDS011;10546;50.674;4.616;2023-04-03T06:38:35;11.40;;;7.70;;
20772;SDS011;10546;50.674;4.616;2023-04-03T06:41:01;11.73;;;7.53;;
20772;SDS011;10546;50.674;4.616;2023-04-03T06:43:27;9.20;;;7.20;;
20772;SDS011;10546;50.674;4.616;2023-04-03T06:45:53;10.80;;;7.07;;
20772;SDS011;10546;50.674;4.616;2023-04-03T06:48:18;9.87;;;7.30;;
20772;SDS011;10546;50.674;4.616;2023-04-03T06:50:44;9.73;;;7.10;;
20772;SDS011;10546;50.674;4.616;2023-04-03T06:53:10;11.25;;;7.28;;
20772;SDS011;10546;50.674;4.616;2023-04-03T06:55:36;8.90;;;7.18;;
20772;SDS011;10546;50.674;4.616;2023-04-03T06:58:03;9.60;;;6.90;;
20772;SDS011;10546;50.674;4.616;2023-04-03T07:00:29;11.25;;;7.20;;
20772;SDS011;10546;50.674;4.616;2023-04-03T07:02:55;10.88;;;7.15;;
20772;SDS011;10546;50.674;4.616;2023-04-03T07:05:22;14.38;;;7.75;;
20772;SDS011;10546;50.674;4.616;2023-04-03T07:07:48;10.10;;;7.47;;
20772;SDS011;10546;50.674;4.616;2023-04-03T07:10:15;11.90;;;7.93;;
20772;SDS011;10546;50.674;4.616;2023-04-03T07:12:41;11.18;;;7.50;;
20772;SDS011;10546;50.674;4.616;2023-04-03T07:15:07;10.82;;;7.40;;
20772;SDS011;10546;50.674;4.616;2023-04-03T07:17:33;13.25;;;7.68;;
20772;SDS011;10546;50.674;4.616;2023-04-03T07:19:59;11.05;;;7.75;;
20772;SDS011;10546;50.674;4.616;2023-04-03T07:22:25;12.77;;;7.43;;
20772;SDS011;10546;50.674;4.616;2023-04-03T07:24:50;11.93;;;8.43;;
20772;SDS011;10546;50.674;4.616;2023-04-03T07:27:16;13.32;;;8.35;;
20772;SDS011;10546;50.674;4.616;2023-04-03T07:29:42;11.13;;;7.32;;
20772;SDS011;10546;50.674;4.616;2023-04-03T07:32:09;11.77;;;7.82;;
20772;SDS011;10546;50.674;4.616;2023-04-03T07:34:35;13.07;;;7.90;;
20772;SDS011;10546;50.674;4.616;2023-04-03T07:37:02;12.90;;;7.68;;
20772;SDS011;10546;50.674;4.616;2023-04-03T07:39:28;10.00;;;7.57;;
20772;SDS011;10546;50.674;4.616;2023-04-03T07:41:54;10.90;;;7.57;;
20772;SDS011;10546;50.674;4.616;2023-04-03T07:44:22;12.70;;;7.97;;
20772;SDS011;10546;50.674;4.616;2023-04-03T07:46:49;11.88;;;7.78;;
20772;SDS011;10546;50.674;4.616;2023-04-03T07:49:15;10.93;;;7.35;;
20772;SDS011;10546;50.674;4.616;2023-04-03T07:51:43;10.63;;;7.70;;
20772;SDS011;10546;50.674;4.616;2023-04-03T07:54:09;11.40;;;7.22;;
20772;SDS011;10546;50.674;4.616;2023-04-03T07:56:35;10.80;;;7.50;;
20772;SDS011;10546;50.674;4.616;2023-04-03T07:59:00;8.85;;;7.30;;
20772;SDS011;10546;50.674;4.616;2023-04-03T08:01:26;9.23;;;7.18;;
20772;SDS011;10546;50.674;4.616;2023-04-03T08:03:52;11.75;;;6.72;;
20772;SDS011;10546;50.674;4.616;2023-04-03T08:06:18;9.07;;;6.75;;
20772;SDS011;10546;50.674;4.616;2023-04-03T08:08:43;9.10;;;6.90;;
20772;SDS011;10546;50.674;4.616;2023-04-03T08:11:09;11.25;;;6.72;;
20772;SDS011;10546;50.674;4.616;2023-04-03T08:13:35;11.75;;;7.35;;
20772;SDS011;10546;50.674;4.616;2023-04-03T08:16:11;9.63;;;6.38;;
20772;SDS011;10546;50.674;4.616;2023-04-03T08:18:40;10.50;;;6.55;;
20772;SDS011;10546;50.674;4.616;2023-04-03T08:21:06;9.30;;;6.82;;
20772;SDS011;10546;50.674;4.616;2023-04-03T08:23:37;8.20;;;5.85;;
20772;SDS011;10546;50.674;4.616;2023-04-03T08:26:11;8.13;;;6.55;;
20772;SDS011;10546;50.674;4.616;2023-04-03T08:28:38;9.57;;;6.82;;
20772;SDS011;10546;50.674;4.616;2023-04-03T08:31:05;8.38;;;5.00;;
20772;SDS011;10546;50.674;4.616;2023-04-03T08:33:33;10.75;;;5.72;;
20772;SDS011;10546;50.674;4.616;2023-04-03T08:36:01;12.63;;;6.53;;
20772;SDS011;10546;50.674;4.616;2023-04-03T08:38:28;9.10;;;6.50;;
20772;SDS011;10546;50.674;4.616;2023-04-03T08:41:02;10.17;;;6.13;;
20772;SDS011;10546;50.674;4.616;2023-04-03T08:43:46;10.40;;;6.37;;
20772;SDS011;10546;50.674;4.616;2023-04-03T08:46:18;10.10;;;6.70;;
20772;SDS011;10546;50.674;4.616;2023-04-03T08:48:47;11.50;;;6.13;;
20772;SDS011;10546;50.674;4.616;2023-04-03T08:51:16;11.80;;;6.13;;
20772;SDS011;10546;50.674;4.616;2023-04-03T08:54:04;7.53;;;6.07;;
20772;SDS011;10546;50.674;4.616;2023-04-03T08:56:39;11.83;;;6.17;;
20772;SDS011;10546;50.674;4.616;2023-04-03T08:59:09;9.20;;;6.03;;
20772;SDS011;10546;50.674;4.616;2023-04-03T09:01:39;9.50;;;5.63;;
20772;SDS011;10546;50.674;4.616;2023-04-03T09:04:10;10.53;;;5.50;;
20772;SDS011;10546;50.674;4.616;2023-04-03T09:06:38;9.30;;;5.50;;
20772;SDS011;10546;50.674;4.616;2023-04-03T09:19:58;9.83;;;6.17;;
20772;SDS011;10546;50.674;4.616;2023-04-03T09:22:36;11.53;;;6.67;;
20772;SDS011;10546;50.674;4.616;2023-04-03T09:25:22;10.40;;;6.47;;
20772;SDS011;10546;50.674;4.616;2023-04-03T09:27:51;6.37;;;4.27;;
20772;SDS011;10546;50.674;4.616;2023-04-03T09:30:18;8.63;;;5.10;;
20772;SDS011;10546;50.674;4.616;2023-04-03T09:32:52;8.63;;;4.93;;
20772;SDS011;10546;50.674;4.616;2023-04-03T09:35:27;10.27;;;4.70;;
20772;SDS011;10546;50.674;4.616;2023-04-03T09:38:00;5.80;;;4.00;;
20772;SDS011;10546;50.674;4.616;2023-04-03T09:40:30;7.37;;;4.83;;
20772;SDS011;10546;50.674;4.616;2023-04-03T09:43:19;10.63;;;4.90;;
20772;SDS011;10546;50.674;4.616;2023-04-03T09:45:52;8.97;;;4.63;;
20772;SDS011;10546;50.674;4.616;2023-04-03T09:48:20;8.80;;;4.43;;
20772;SDS011;10546;50.674;4.616;2023-04-03T09:53:41;7.82;;;4.43;;
20772;SDS011;10546;50.674;4.616;2023-04-03T09:58:44;10.65;;;3.75;;
20772;SDS011;10546;50.674;4.616;2023-04-03T10:01:25;4.13;;;3.40;;
20772;SDS011;10546;50.674;4.616;2023-04-03T10:04:17;8.43;;;3.60;;
20772;SDS011;10546;50.674;4.616;2023-04-03T10:06:45;5.32;;;3.17;;
20772;SDS011;10546;50.674;4.616;2023-04-03T10:12:08;7.72;;;4.13;;
20772;SDS011;10546;50.674;4.616;2023-04-03T10:19:57;5.72;;;3.08;;
20772;SDS011;10546;50.674;4.616;2023-04-03T10:22:31;5.57;;;3.20;;
20772;SDS011;10546;50.674;4.616;2023-04-03T10:27:59;6.63;;;3.38;;
20772;SDS011;10546;50.674;4.616;2023-04-03T10:46:43;5.22;;;2.88;;
20772;SDS011;10546;50.674;4.616;2023-04-03T10:57:32;7.32;;;2.72;;
20772;SDS011;10546;50.674;4.616;2023-04-03T10:59:59;5.22;;;2.15;;
20772;SDS011;10546;50.674;4.616;2023-04-03T11:02:37;3.30;;;2.47;;
20772;SDS011;10546;50.674;4.616;2023-04-03T11:05:29;4.33;;;2.20;;
20772;SDS011;10546;50.674;4.616;2023-04-03T11:11:05;4.67;;;2.73;;
20772;SDS011;10546;50.674;4.616;2023-04-03T11:13:42;4.13;;;2.50;;
20772;SDS011;10546;50.674;4.616;2023-04-03T11:16:30;6.37;;;2.57;;
20772;SDS011;10546;50.674;4.616;2023-04-03T11:19:03;4.27;;;1.90;;
20772;SDS011;10546;50.674;4.616;2023-04-03T11:24:05;3.67;;;2.10;;
20772;SDS011;10546;50.674;4.616;2023-04-03T11:26:42;2.80;;;1.83;;
20772;SDS011;10546;50.674;4.616;2023-04-03T11:29:10;4.57;;;2.20;;
20772;SDS011;10546;50.674;4.616;2023-04-03T11:36:53;7.53;;;2.47;;
20772;SDS011;10546;50.674;4.616;2023-04-03T11:39:25;5.87;;;2.80;;
20772;SDS011;10546;50.674;4.616;2023-04-03T11:41:55;6.03;;;2.20;;
20772;SDS011;10546;50.674;4.616;2023-04-03T11:44:38;4.77;;;2.33;;
20772;SDS011;10546;50.674;4.616;2023-04-03T11:47:04;5.80;;;2.50;;
20772;SDS011;10546;50.674;4.616;2023-04-03T11:58:32;6.63;;;2.00;;
20772;SDS011;10546;50.674;4.616;2023-04-03T12:05:50;4.43;;;2.27;;
20772;SDS011;10546;50.674;4.616;2023-04-03T12:13:40;5.27;;;2.23;;
20772;SDS011;10546;50.674;4.616;2023-04-03T12:16:19;6.50;;;2.23;;
20772;SDS011;10546;50.674;4.616;2023-04-03T12:21:20;4.27;;;2.40;;
20772;SDS011;10546;50.674;4.616;2023-04-03T12:26:44;5.77;;;2.30;;
20772;SDS011;10546;50.674;4.616;2023-04-03T12:46:23;3.07;;;1.43;;
20772;SDS011;10546;50.674;4.616;2023-04-03T12:48:53;2.40;;;1.57;;
20772;SDS011;10546;50.674;4.616;2023-04-03T12:53:49;3.10;;;1.60;;
20772;SDS011;10546;50.674;4.616;2023-04-03T12:56:18;11.17;;;1.73;;
20772;SDS011;10546;50.674;4.616;2023-04-03T12:58:46;2.67;;;1.70;;
20772;SDS011;10546;50.674;4.616;2023-04-03T13:01:20;2.83;;;1.53;;
20772;SDS011;10546;50.674;4.616;2023-04-03T13:03:52;2.53;;;1.80;;
20772;SDS011;10546;50.674;4.616;2023-04-03T13:08:51;2.97;;;1.60;;
20772;SDS011;10546;50.674;4.616;2023-04-03T13:11:19;2.70;;;1.87;;
20772;SDS011;10546;50.674;4.616;2023-04-03T13:14:00;5.03;;;1.53;;
20772;SDS011;10546;50.674;4.616;2023-04-03T13:16:28;3.10;;;1.60;;
20772;SDS011;10546;50.674;4.616;2023-04-03T13:18:54;4.03;;;1.67;;
20772;SDS011;10546;50.674;4.616;2023-04-03T13:21:27;4.77;;;1.90;;
20772;SDS011;10546;50.674;4.616;2023-04-03T13:23:56;3.83;;;1.80;;
20772;SDS011;10546;50.674;4.616;2023-04-03T13:26:26;4.33;;;2.00;;
20772;SDS011;10546;50.674;4.616;2023-04-03T13:28:58;2.50;;;1.93;;
20772;SDS011;10546;50.674;4.616;2023-04-03T13:31:29;3.80;;;1.90;;
20772;SDS011;10546;50.674;4.616;2023-04-03T13:33:59;2.87;;;1.93;;
20772;SDS011;10546;50.674;4.616;2023-04-03T13:41:54;6.00;;;1.97;;
20772;SDS011;10546;50.674;4.616;2023-04-03T13:44:28;3.73;;;2.30;;
20772;SDS011;10546;50.674;4.616;2023-04-03T13:49:41;3.33;;;1.90;;
20772;SDS011;10546;50.674;4.616;2023-04-03T13:52:26;4.47;;;2.20;;
20772;SDS011;10546;50.674;4.616;2023-04-03T13:54:55;3.13;;;1.60;;
20772;SDS011;10546;50.674;4.616;2023-04-03T13:57:23;4.10;;;2.17;;
20772;SDS011;10546;50.674;4.616;2023-04-03T13:59:49;3.80;;;1.93;;
20772;SDS011;10546;50.674;4.616;2023-04-03T14:02:32;6.57;;;2.33;;
20772;SDS011;10546;50.674;4.616;2023-04-03T14:05:00;4.00;;;1.97;;
20772;SDS011;10546;50.674;4.616;2023-04-03T14:07:29;2.47;;;1.70;;
20772;SDS011;10546;50.674;4.616;2023-04-03T14:09:56;3.60;;;2.10;;
20772;SDS011;10546;50.674;4.616;2023-04-03T14:12:32;4.50;;;2.07;;
20772;SDS011;10546;50.674;4.616;2023-04-03T14:15:01;4.97;;;2.07;;
20772;SDS011;10546;50.674;4.616;2023-04-03T14:17:30;4.23;;;2.17;;
20772;SDS011;10546;50.674;4.616;2023-04-03T14:19:57;6.33;;;2.07;;
20772;SDS011;10546;50.674;4.616;2023-04-03T14:22:25;6.43;;;2.43;;
20772;SDS011;10546;50.674;4.616;2023-04-03T14:24:53;2.77;;;1.80;;
20772;SDS011;10546;50.674;4.616;2023-04-03T14:29:54;4.03;;;2.10;;
20772;SDS011;10546;50.674;4.616;2023-04-03T14:32:21;5.07;;;2.43;;
20772;SDS011;10546;50.674;4.616;2023-04-03T14:34:49;4.43;;;1.63;;
20772;SDS011;10546;50.674;4.616;2023-04-03T14:37:16;4.80;;;2.23;;
20772;SDS011;10546;50.674;4.616;2023-04-03T14:39:45;4.33;;;2.50;;
20772;SDS011;10546;50.674;4.616;2023-04-03T14:42:13;5.50;;;2.13;;
20772;SDS011;10546;50.674;4.616;2023-04-03T14:44:41;2.50;;;1.80;;
20772;SDS011;10546;50.674;4.616;2023-04-03T14:47:13;5.57;;;2.30;;
20772;SDS011;10546;50.674;4.616;2023-04-03T14:49:51;6.57;;;2.20;;
20772;SDS011;10546;50.674;4.616;2023-04-03T14:52:18;4.07;;;2.60;;
20772;SDS011;10546;50.674;4.616;2023-04-03T14:54:51;4.77;;;2.50;;
20772;SDS011;10546;50.674;4.616;2023-04-03T14:57:17;5.67;;;2.60;;
20772;SDS011;10546;50.674;4.616;2023-04-03T14:59:44;7.20;;;2.13;;
20772;SDS011;10546;50.674;4.616;2023-04-03T15:02:15;7.47;;;2.60;;
20772;SDS011;10546;50.674;4.616;2023-04-03T15:05:00;4.83;;;2.33;;
20772;SDS011;10546;50.674;4.616;2023-04-03T15:07:29;3.53;;;2.40;;
20772;SDS011;10546;50.674;4.616;2023-04-03T15:10:00;8.83;;;4.00;;
20772;SDS011;10546;50.674;4.616;2023-04-03T15:12:31;4.10;;;2.23;;
20772;SDS011;10546;50.674;4.616;2023-04-03T15:14:57;5.40;;;2.53;;
20772;SDS011;10546;50.674;4.616;2023-04-03T15:17:23;7.77;;;3.00;;
20772;SDS011;10546;50.674;4.616;2023-04-03T15:19:49;3.20;;;2.13;;
20772;SDS011;10546;50.674;4.616;2023-04-03T15:22:18;5.80;;;3.00;;
20772;SDS011;10546;50.674;4.616;2023-04-03T15:24:45;3.70;;;2.17;;
20772;SDS011;10546;50.674;4.616;2023-04-03T15:27:11;6.57;;;3.10;;
20772;SDS011;10546;50.674;4.616;2023-04-03T15:29:38;4.87;;;2.50;;
20772;SDS011;10546;50.674;4.616;2023-04-03T15:32:06;4.13;;;2.07;;
20772;SDS011;10546;50.674;4.616;2023-04-03T15:34:32;3.37;;;2.40;;
20772;SDS011;10546;50.674;4.616;2023-04-03T15:36:57;3.23;;;2.37;;
20772;SDS011;10546;50.674;4.616;2023-04-03T15:39:24;3.37;;;2.53;;
20772;SDS011;10546;50.674;4.616;2023-04-03T15:41:50;6.60;;;2.23;;
20772;SDS011;10546;50.674;4.616;2023-04-03T15:44:17;6.10;;;2.57;;
20772;SDS011;10546;50.674;4.616;2023-04-03T15:46:44;5.30;;;2.43;;
20772;SDS011;10546;50.674;4.616;2023-04-03T15:49:10;11.10;;;2.20;;
20772;SDS011;10546;50.674;4.616;2023-04-03T15:51:37;3.53;;;2.30;;
20772;SDS011;10546;50.674;4.616;2023-04-03T15:54:02;8.20;;;2.20;;
20772;SDS011;10546;50.674;4.616;2023-04-03T15:56:28;4.23;;;2.20;;
20772;SDS011;10546;50.674;4.616;2023-04-03T15:58:54;4.23;;;2.50;;
20772;SDS011;10546;50.674;4.616;2023-04-03T16:01:19;5.90;;;2.07;;
20772;SDS011;10546;50.674;4.616;2023-04-03T16:03:45;6.30;;;2.57;;
20772;SDS011;10546;50.674;4.616;2023-04-03T16:06:14;4.27;;;2.20;;
20772;SDS011;10546;50.674;4.616;2023-04-03T16:08:42;4.87;;;2.20;;
20772;SDS011;10546;50.674;4.616;2023-04-03T16:11:08;6.97;;;2.40;;
20772;SDS011;10546;50.674;4.616;2023-04-03T16:13:34;5.77;;;2.93;;
20772;SDS011;10546;50.674;4.616;2023-04-03T16:16:00;4.67;;;3.10;;
20772;SDS011;10546;50.674;4.616;2023-04-03T16:18:27;5.03;;;2.50;;
20772;SDS011;10546;50.674;4.616;2023-04-03T16:20:53;2.90;;;1.90;;
20772;SDS011;10546;50.674;4.616;2023-04-03T16:23:19;3.33;;;2.23;;
20772;SDS011;10546;50.674;4.616;2023-04-03T16:25:46;5.53;;;2.60;;
20772;SDS011;10546;50.674;4.616;2023-04-03T16:28:13;4.00;;;2.37;;
20772;SDS011;10546;50.674;4.616;2023-04-03T16:30:40;6.10;;;2.50;;
20772;SDS011;10546;50.674;4.616;2023-04-03T16:33:06;3.83;;;2.40;;
20772;SDS011;10546;50.674;4.616;2023-04-03T16:35:33;6.60;;;2.50;;
20772;SDS011;10546;50.674;4.616;2023-04-03T16:37:59;4.90;;;2.73;;
20772;SDS011;10546;50.674;4.616;2023-04-03T16:40:25;4.33;;;2.30;;
20772;SDS011;10546;50.674;4.616;2023-04-03T16:42:50;5.10;;;2.20;;
20772;SDS011;10546;50.674;4.616;2023-04-03T16:45:16;7.57;;;2.43;;
20772;SDS011;10546;50.674;4.616;2023-04-03T16:47:42;10.83;;;2.23;;
20772;SDS011;10546;50.674;4.616;2023-04-03T16:50:07;7.80;;;2.70;;
20772;SDS011;10546;50.674;4.616;2023-04-03T16:52:33;4.07;;;2.07;;
20772;SDS011;10546;50.674;4.616;2023-04-03T16:54:59;4.90;;;2.33;;
20772;SDS011;10546;50.674;4.616;2023-04-03T16:57:25;5.50;;;1.93;;
20772;SDS011;10546;50.674;4.616;2023-04-03T16:59:51;4.83;;;2.10;;
20772;SDS011;10546;50.674;4.616;2023-04-03T17:02:18;3.10;;;1.87;;
20772;SDS011;10546;50.674;4.616;2023-04-03T17:04:44;4.77;;;2.13;;
20772;SDS011;10546;50.674;4.616;2023-04-03T17:07:10;4.70;;;1.87;;
20772;SDS011;10546;50.674;4.616;2023-04-03T17:09:35;4.03;;;2.10;;
20772;SDS011;10546;50.674;4.616;2023-04-03T17:12:02;5.47;;;2.00;;
20772;SDS011;10546;50.674;4.616;2023-04-03T17:14:28;8.43;;;2.00;;
20772;SDS011;10546;50.674;4.616;2023-04-03T17:16:53;4.27;;;2.10;;
20772;SDS011;10546;50.674;4.616;2023-04-03T17:19:19;4.33;;;1.70;;
20772;SDS011;10546;50.674;4.616;2023-04-03T17:21:44;2.87;;;1.60;;
20772;SDS011;10546;50.674;4.616;2023-04-03T17:24:10;3.93;;;1.90;;
20772;SDS011;10546;50.674;4.616;2023-04-03T17:26:38;3.03;;;1.80;;
20772;SDS011;10546;50.674;4.616;2023-04-03T17:29:05;2.93;;;2.00;;
20772;SDS011;10546;50.674;4.616;2023-04-03T17:31:31;3.47;;;1.90;;
20772;SDS011;10546;50.674;4.616;2023-04-03T17:33:57;3.87;;;1.93;;
20772;SDS011;10546;50.674;4.616;2023-04-03T17:36:26;2.73;;;1.80;;
20772;SDS011;10546;50.674;4.616;2023-04-03T17:38:53;5.23;;;2.00;;
20772;SDS011;10546;50.674;4.616;2023-04-03T17:41:19;6.90;;;2.20;;
20772;SDS011;10546;50.674;4.616;2023-04-03T17:43:45;4.90;;;1.90;;
20772;SDS011;10546;50.674;4.616;2023-04-03T17:46:10;5.83;;;1.87;;
20772;SDS011;10546;50.674;4.616;2023-04-03T17:48:37;4.10;;;2.27;;
20772;SDS011;10546;50.674;4.616;2023-04-03T17:51:12;8.07;;;3.40;;
20772;SDS011;10546;50.674;4.616;2023-04-03T17:53:39;15.07;;;9.67;;
20772;SDS011;10546;50.674;4.616;2023-04-03T17:56:05;5.37;;;3.33;;
20772;SDS011;10546;50.674;4.616;2023-04-03T17:58:35;6.83;;;2.50;;
20772;SDS011;10546;50.674;4.616;2023-04-03T18:01:08;5.60;;;2.37;;
20772;SDS011;10546;50.674;4.616;2023-04-03T18:03:36;7.47;;;4.20;;
20772;SDS011;10546;50.674;4.616;2023-04-03T18:06:03;4.53;;;2.43;;
20772;SDS011;10546;50.674;4.616;2023-04-03T18:08:32;5.87;;;2.47;;
20772;SDS011;10546;50.674;4.616;2023-04-03T18:11:01;20.33;;;9.83;;
20772;SDS011;10546;50.674;4.616;2023-04-03T18:13:27;4.37;;;2.43;;
20772;SDS011;10546;50.674;4.616;2023-04-03T18:15:53;13.03;;;6.20;;
20772;SDS011;10546;50.674;4.616;2023-04-03T18:18:18;8.17;;;4.33;;
20772;SDS011;10546;50.674;4.616;2023-04-03T18:20:44;6.97;;;3.67;;
20772;SDS011;10546;50.674;4.616;2023-04-03T18:23:10;9.23;;;3.73;;
20772;SDS011;10546;50.674;4.616;2023-04-03T18:25:36;6.30;;;2.73;;
20772;SDS011;10546;50.674;4.616;2023-04-03T18:28:02;11.53;;;5.57;;
20772;SDS011;10546;50.674;4.616;2023-04-03T18:30:30;6.50;;;3.40;;
20772;SDS011;10546;50.674;4.616;2023-04-03T18:32:58;9.23;;;3.70;;
20772;SDS011;10546;50.674;4.616;2023-04-03T18:35:23;6.07;;;3.13;;
20772;SDS011;10546;50.674;4.616;2023-04-03T18:37:49;5.97;;;2.97;;
20772;SDS011;10546;50.674;4.616;2023-04-03T18:40:15;7.83;;;4.87;;
20772;SDS011;10546;50.674;4.616;2023-04-03T18:42:41;13.67;;;6.27;;
20772;SDS011;10546;50.674;4.616;2023-04-03T18:45:07;8.27;;;4.83;;
20772;SDS011;10546;50.674;4.616;2023-04-03T18:47:35;6.33;;;3.40;;
20772;SDS011;10546;50.674;4.616;2023-04-03T18:50:05;11.80;;;4.50;;
20772;SDS011;10546;50.674;4.616;2023-04-03T18:52:32;8.33;;;3.13;;
20772;SDS011;10546;50.674;4.616;2023-04-03T18:54:57;9.40;;;4.03;;
20772;SDS011;10546;50.674;4.616;2023-04-03T18:57:23;6.50;;;2.77;;
20772;SDS011;10546;50.674;4.616;2023-04-03T18:59:50;9.57;;;4.77;;
20772;SDS011;10546;50.674;4.616;2023-04-03T19:02:16;6.03;;;3.00;;
20772;SDS011;10546;50.674;4.616;2023-04-03T19:04:45;4.67;;;2.57;;
20772;SDS011;10546;50.674;4.616;2023-04-03T19:07:11;8.87;;;3.70;;
20772;SDS011;10546;50.674;4.616;2023-04-03T19:09:36;9.83;;;4.10;;
20772;SDS011;10546;50.674;4.616;2023-04-03T19:12:03;7.30;;;3.00;;
20772;SDS011;10546;50.674;4.616;2023-04-03T19:14:29;11.37;;;3.30;;
20772;SDS011;10546;50.674;4.616;2023-04-03T19:16:55;31.20;;;14.07;;
20772;SDS011;10546;50.674;4.616;2023-04-03T19:19:21;3.63;;;2.60;;
20772;SDS011;10546;50.674;4.616;2023-04-03T19:21:47;6.20;;;2.90;;
20772;SDS011;10546;50.674;4.616;2023-04-03T19:24:13;7.43;;;3.37;;
20772;SDS011;10546;50.674;4.616;2023-04-03T19:26:39;8.57;;;4.43;;
20772;SDS011;10546;50.674;4.616;2023-04-03T19:29:06;4.17;;;2.63;;
20772;SDS011;10546;50.674;4.616;2023-04-03T19:31:31;5.70;;;2.50;;
20772;SDS011;10546;50.674;4.616;2023-04-03T19:33:58;8.57;;;3.63;;
20772;SDS011;10546;50.674;4.616;2023-04-03T19:36:24;6.30;;;2.70;;
20772;SDS011;10546;50.674;4.616;2023-04-03T19:38:50;4.47;;;2.30;;
20772;SDS011;10546;50.674;4.616;2023-04-03T19:41:20;8.13;;;2.80;;
20772;SDS011;10546;50.674;4.616;2023-04-03T19:43:47;5.63;;;2.77;;
20772;SDS011;10546;50.674;4.616;2023-04-03T19:46:15;8.57;;;2.90;;
20772;SDS011;10546;50.674;4.616;2023-04-03T19:48:43;9.17;;;2.97;;
20772;SDS011;10546;50.674;4.616;2023-04-03T19:51:11;4.20;;;2.40;;
20772;SDS011;10546;50.674;4.616;2023-04-03T19:53:37;8.40;;;2.80;;
20772;SDS011;10546;50.674;4.616;2023-04-03T19:56:03;7.30;;;2.77;;
20772;SDS011;10546;50.674;4.616;2023-04-03T19:58:28;6.60;;;2.70;;
20772;SDS011;10546;50.674;4.616;2023-04-03T20:00:55;8.97;;;2.70;;
20772;SDS011;10546;50.674;4.616;2023-04-03T20:03:22;4.87;;;2.63;;
20772;SDS011;10546;50.674;4.616;2023-04-03T20:05:48;4.50;;;2.67;;
20772;SDS011;10546;50.674;4.616;2023-04-03T20:08:14;5.23;;;2.67;;
20772;SDS011;10546;50.674;4.616;2023-04-03T20:10:41;6.23;;;2.70;;
20772;SDS011;10546;50.674;4.616;2023-04-03T20:13:08;9.70;;;3.07;;
20772;SDS011;10546;50.674;4.616;2023-04-03T20:15:35;6.53;;;2.70;;
20772;SDS011;10546;50.674;4.616;2023-04-03T20:18:08;6.50;;;2.90;;
20772;SDS011;10546;50.674;4.616;2023-04-03T20:20:36;5.50;;;3.10;;
20772;SDS011;10546;50.674;4.616;2023-04-03T20:23:11;5.67;;;3.03;;
20772;SDS011;10546;50.674;4.616;2023-04-03T20:25:44;11.00;;;5.70;;
20772;SDS011;10546;50.674;4.616;2023-04-03T20:28:11;8.37;;;4.50;;
20772;SDS011;10546;50.674;4.616;2023-04-03T20:30:39;6.67;;;3.20;;
20772;SDS011;10546;50.674;4.616;2023-04-03T20:33:06;6.93;;;3.23;;
20772;SDS011;10546;50.674;4.616;2023-04-03T20:35:32;7.57;;;3.10;;
20772;SDS011;10546;50.674;4.616;2023-04-03T20:37:58;4.43;;;2.80;;
20772;SDS011;10546;50.674;4.616;2023-04-03T20:40:24;6.30;;;3.00;;
20772;SDS011;10546;50.674;4.616;2023-04-03T20:42:50;5.33;;;2.77;;
20772;SDS011;10546;50.674;4.616;2023-04-03T20:45:16;7.13;;;2.97;;
20772;SDS011;10546;50.674;4.616;2023-04-03T20:47:42;6.10;;;3.20;;
20772;SDS011;10546;50.674;4.616;2023-04-03T20:50:08;5.03;;;3.07;;
20772;SDS011;10546;50.674;4.616;2023-04-03T20:52:34;9.40;;;2.83;;
20772;SDS011;10546;50.674;4.616;2023-04-03T20:55:00;6.10;;;2.80;;
20772;SDS011;10546;50.674;4.616;2023-04-03T20:57:26;6.33;;;3.53;;
20772;SDS011;10546;50.674;4.616;2023-04-03T20:59:52;7.27;;;3.10;;
20772;SDS011;10546;50.674;4.616;2023-04-03T21:02:18;7.30;;;2.73;;
20772;SDS011;10546;50.674;4.616;2023-04-03T21:04:50;4.20;;;2.70;;
20772;SDS011;10546;50.674;4.616;2023-04-03T21:21:28;4.90;;;2.90;;
20772;SDS011;10546;50.674;4.616;2023-04-03T21:23:55;6.03;;;3.17;;
20772;SDS011;10546;50.674;4.616;2023-04-03T21:26:21;6.20;;;2.90;;
20772;SDS011;10546;50.674;4.616;2023-04-03T21:28:50;6.70;;;3.07;;
20772;SDS011;10546;50.674;4.616;2023-04-03T21:31:19;8.70;;;2.90;;
20772;SDS011;10546;50.674;4.616;2023-04-03T21:33:45;4.43;;;2.47;;
20772;SDS011;10546;50.674;4.616;2023-04-03T21:36:11;4.40;;;2.60;;
20772;SDS011;10546;50.674;4.616;2023-04-03T21:38:37;3.93;;;2.53;;
20772;SDS011;10546;50.674;4.616;2023-04-03T21:41:02;3.93;;;2.87;;
20772;SDS011;10546;50.674;4.616;2023-04-03T21:43:28;9.20;;;3.10;;
